Time;durP1;ratioP1;P1;durP2;ratioP2;P2;SDS_P1;SDS_P2;PMS_P1;PMS_P2;Temp;Humidity;BMP_temperature;BMP_pressure;BME280_temperature;BME280_humidity;BME280_pressure;Samples;Min_cycle;Max_cycle;Signal;HPM_P1;HPM_P2
2022/04/29 00:02:06;;;;;;;16.05;7.80;;;;;;;9.50;70.95;102932.69;5090378;28;20114;-73
2022/04/29 00:04:31;;;;;;;14.55;7.45;;;;;;;9.47;71.54;102932.63;5090909;28;20480;-73
2022/04/29 00:06:57;;;;;;;14.43;7.25;;;;;;;9.47;70.80;102937.84;5072374;28;20048;-73
2022/04/29 00:09:22;;;;;;;16.75;7.43;;;;;;;9.48;70.42;102934.41;5071949;28;20033;-73
2022/04/29 00:11:47;;;;;;;12.45;7.25;;;;;;;9.43;70.93;102935.19;5070859;28;20099;-73
2022/04/29 00:14:13;;;;;;;17.23;8.38;;;;;;;9.40;71.52;102927.31;5089336;28;20122;-73
2022/04/29 00:16:38;;;;;;;13.63;7.78;;;;;;;9.34;71.60;102917.69;5082207;28;20426;-73
2022/04/29 00:19:04;;;;;;;19.05;8.27;;;;;;;9.29;71.87;102914.16;5091266;28;20032;-73
2022/04/29 00:21:29;;;;;;;15.45;7.40;;;;;;;9.32;71.47;102916.81;5074947;28;20033;-73
2022/04/29 00:23:54;;;;;;;12.63;7.30;;;;;;;9.34;71.71;102909.88;5071811;28;20546;-73
2022/04/29 00:26:19;;;;;;;13.73;8.20;;;;;;;9.41;70.96;102919.53;5083619;28;20039;-73
2022/04/29 00:28:45;;;;;;;15.90;7.60;;;;;;;9.34;71.48;102928.09;5091644;28;20526;-73
2022/04/29 00:31:10;;;;;;;12.18;7.65;;;;;;;9.25;71.16;102915.81;5080081;28;20025;-73
2022/04/29 00:33:35;;;;;;;15.45;7.80;;;;;;;9.28;71.33;102923.66;5084653;28;20047;-73
2022/04/29 00:36:01;;;;;;;12.32;7.30;;;;;;;9.25;71.46;102921.03;5081857;28;20025;-73
2022/04/29 00:38:26;;;;;;;15.18;7.90;;;;;;;9.25;71.76;102920.16;5071530;28;20032;-73
2022/04/29 00:40:51;;;;;;;12.52;7.40;;;;;;;9.13;71.78;102920.84;5070677;28;20099;-73
2022/04/29 00:43:17;;;;;;;15.73;8.52;;;;;;;9.03;72.60;102913.75;5071283;28;20029;-73
2022/04/29 00:45:42;;;;;;;16.67;7.28;;;;;;;8.96;73.32;102914.47;5082371;28;20028;-73
2022/04/29 00:48:08;;;;;;;12.40;7.38;;;;;;;8.95;73.51;102916.22;5090814;28;20016;-73
2022/04/29 00:50:35;;;;;;;13.82;7.60;;;;;;;8.96;73.27;102906.69;5090164;28;20169;-73
2022/04/29 00:53:02;;;;;;;13.23;8.60;;;;;;;8.96;72.80;102896.28;5071437;28;20049;-73
2022/04/29 00:55:29;;;;;;;13.82;7.72;;;;;;;8.98;73.25;102905.84;5078993;28;20357;-73
2022/04/29 00:58:09;;;;;;;18.15;7.97;;;;;;;8.93;72.94;102906.63;5091400;28;20116;-73
2022/04/29 01:00:35;;;;;;;17.55;7.93;;;;;;;8.90;73.75;102905.75;5090128;28;20068;-73
2022/04/29 01:03:03;;;;;;;16.73;8.30;;;;;;;8.89;73.30;102901.41;5070896;28;20021;-73
2022/04/29 01:05:29;;;;;;;17.67;8.35;;;;;;;8.78;73.73;102907.25;5072690;28;20024;-73
2022/04/29 01:07:54;;;;;;;16.00;7.85;;;;;;;8.73;74.44;102902.00;5070484;28;20387;-73
2022/04/29 01:10:21;;;;;;;18.60;8.10;;;;;;;8.73;73.89;102899.41;5071047;28;20088;-73
2022/04/29 01:12:50;;;;;;;15.10;8.50;;;;;;;8.74;74.31;102906.34;5090398;28;20035;-73
2022/04/29 01:15:20;;;;;;;14.52;7.70;;;;;;;8.66;74.14;102903.63;5094366;28;20487;-73
2022/04/29 01:17:47;;;;;;;18.65;9.32;;;;;;;8.66;74.53;102894.91;5095306;28;20036;-73
2022/04/29 01:20:25;;;;;;;20.85;8.73;;;;;;;8.66;74.20;102888.03;5095040;28;20020;-73
2022/04/29 01:22:50;;;;;;;17.63;8.23;;;;;;;8.62;74.43;102886.19;5074901;28;20037;-73
2022/04/29 01:25:15;;;;;;;15.68;8.40;;;;;;;8.49;74.54;102879.03;5074941;28;20357;-73
2022/04/29 01:27:40;;;;;;;17.02;8.35;;;;;;;8.42;75.13;102874.56;5091572;28;20024;-73
2022/04/29 01:30:12;;;;;;;21.08;8.60;;;;;;;8.44;74.96;102878.09;5094251;28;20070;-73
2022/04/29 01:32:39;;;;;;;13.88;7.95;;;;;;;8.42;75.52;102878.03;5078415;28;20036;-73
2022/04/29 01:35:06;;;;;;;20.30;8.55;;;;;;;8.40;75.64;102873.66;5074603;28;20365;-73
2022/04/29 01:37:31;;;;;;;13.40;8.38;;;;;;;8.35;74.75;102868.34;5073380;28;20070;-72
2022/04/29 01:39:57;;;;;;;13.10;8.45;;;;;;;8.25;75.24;102870.78;5094536;28;20037;-73
2022/04/29 01:42:22;;;;;;;14.63;8.15;;;;;;;8.24;75.87;102861.19;5080642;28;20059;-72
2022/04/29 01:44:48;;;;;;;16.30;8.18;;;;;;;8.24;76.05;102863.81;5072959;28;20468;-72
2022/04/29 01:47:14;;;;;;;14.48;8.13;;;;;;;8.20;75.48;102861.16;5074251;28;20039;-72
2022/04/29 01:49:40;;;;;;;17.38;8.30;;;;;;;8.16;76.08;102869.72;5088478;28;20020;-72
2022/04/29 01:52:05;;;;;;;13.95;8.13;;;;;;;8.14;75.87;102862.75;5078231;28;20040;-73
2022/04/29 01:54:31;;;;;;;13.48;8.55;;;;;;;8.11;76.05;102858.41;5074131;28;20419;-73
2022/04/29 01:56:56;;;;;;;17.15;8.35;;;;;;;8.03;76.10;102866.88;5073873;28;20020;-73
2022/04/29 01:59:22;;;;;;;12.90;7.88;;;;;;;7.95;76.20;102859.81;5085765;28;20042;-73
2022/04/29 02:01:47;;;;;;;16.10;8.52;;;;;;;7.90;76.50;102861.44;5092667;28;20024;-73
2022/04/29 02:04:14;;;;;;;16.80;8.90;;;;;;;7.93;76.26;102869.28;5093492;28;20027;-73
2022/04/29 02:06:39;;;;;;;17.10;9.70;;;;;;;7.90;76.05;102869.22;5094158;28;20082;-73
2022/04/29 02:09:05;;;;;;;16.10;8.18;;;;;;;7.91;76.52;102862.31;5094300;28;20020;-72
2022/04/29 02:11:31;;;;;;;12.75;7.95;;;;;;;7.94;76.72;102852.84;5083718;28;20418;-73
2022/04/29 02:13:56;;;;;;;15.88;8.18;;;;;;;7.97;76.45;102862.44;5074243;28;20021;-73
2022/04/29 02:16:21;;;;;;;15.60;8.48;;;;;;;7.95;76.30;102858.94;5082757;28;20032;-73
2022/04/29 02:18:47;;;;;;;20.17;7.93;;;;;;;7.90;76.77;102860.56;5093126;28;20028;-73
2022/04/29 02:21:12;;;;;;;16.02;8.30;;;;;;;7.98;76.24;102867.69;5087720;28;20085;-73
2022/04/29 02:23:37;;;;;;;16.35;8.05;;;;;;;7.86;76.62;102853.56;5073904;28;20078;-73
2022/04/29 02:26:03;;;;;;;15.75;8.18;;;;;;;7.93;76.65;102858.03;5072127;28;20031;-73
2022/04/29 02:28:28;;;;;;;16.35;7.40;;;;;;;7.90;76.41;102865.75;5073892;28;20034;-72
2022/04/29 02:30:55;;;;;;;18.13;8.20;;;;;;;7.81;77.04;102858.66;5085828;28;20024;-73
2022/04/29 02:33:20;;;;;;;16.33;8.32;;;;;;;7.76;77.04;102852.50;5072718;28;20016;-73
2022/04/29 02:35:46;;;;;;;14.80;8.38;;;;;;;7.80;76.93;102853.44;5073261;28;20526;-73
2022/04/29 02:38:11;;;;;;;18.67;8.10;;;;;;;7.74;77.08;102855.06;5073435;28;20040;-73
2022/04/29 02:40:36;;;;;;;19.08;8.90;;;;;;;7.67;76.52;102850.59;5082353;28;20177;-73
2022/04/29 02:43:02;;;;;;;19.05;8.63;;;;;;;7.66;76.95;102850.56;5092363;28;20016;-73
2022/04/29 02:45:27;;;;;;;18.17;8.30;;;;;;;7.65;77.34;102854.00;5093293;28;20035;-73
2022/04/29 02:47:52;;;;;;;15.65;8.40;;;;;;;7.56;77.37;102846.91;5092686;28;20510;-73
2022/04/29 02:50:17;;;;;;;21.95;9.52;;;;;;;7.59;77.14;102857.34;5088428;28;20044;-73
2022/04/29 02:52:43;;;;;;;17.02;9.05;;;;;;;7.58;77.77;102857.31;5089438;28;20131;-73
2022/04/29 02:55:08;;;;;;;16.52;8.40;;;;;;;7.56;77.72;102849.50;5092717;28;20031;-73
2022/04/29 02:57:33;;;;;;;17.95;8.60;;;;;;;7.56;77.08;102852.09;5093005;28;20032;-73
2022/04/29 02:59:59;;;;;;;16.88;9.10;;;;;;;7.58;77.33;102844.31;5074198;28;20028;-73
2022/04/29 03:02:24;;;;;;;20.55;8.63;;;;;;;7.58;77.66;102850.38;5085582;28;20036;-73
2022/04/29 03:04:50;;;;;;;15.52;8.70;;;;;;;7.56;77.61;102848.63;5087932;28;20035;-73
2022/04/29 03:07:15;;;;;;;16.60;9.40;;;;;;;7.59;77.45;102843.50;5072343;28;20035;-72
2022/04/29 03:09:40;;;;;;;16.55;8.63;;;;;;;7.60;77.68;102829.69;5088537;28;20042;-73
2022/04/29 03:12:09;;;;;;;18.75;8.52;;;;;;;7.62;77.49;102834.06;5081620;28;20036;-73
2022/04/29 03:14:34;;;;;;;16.20;8.25;;;;;;;7.64;76.64;102832.34;5071920;28;20048;-72
2022/04/29 03:16:59;;;;;;;19.08;8.60;;;;;;;7.62;77.24;102828.88;5072784;28;20503;-73
2022/04/29 03:19:25;;;;;;;15.63;8.77;;;;;;;7.59;77.44;102826.22;5072416;28;20119;-73
2022/04/29 03:21:50;;;;;;;19.88;9.55;;;;;;;7.58;77.50;102814.06;5079173;28;20020;-73
2022/04/29 03:24:15;;;;;;;17.23;8.30;;;;;;;7.57;77.23;102808.84;5092883;28;20379;-73
2022/04/29 03:26:41;;;;;;;19.30;9.25;;;;;;;7.56;77.33;102817.50;5092598;28;20110;-73
2022/04/29 03:29:06;;;;;;;19.67;8.98;;;;;;;7.51;77.36;102831.22;5091961;28;20065;-72
2022/04/29 03:31:31;;;;;;;17.70;9.45;;;;;;;7.45;77.67;102833.69;5079514;28;20464;-73
2022/04/29 03:33:57;;;;;;;20.08;9.15;;;;;;;7.44;77.18;102829.34;5092869;28;20532;-73
2022/04/29 03:36:23;;;;;;;18.77;8.60;;;;;;;7.42;78.62;102836.25;5091589;28;20048;-73
2022/04/29 03:38:48;;;;;;;21.88;9.48;;;;;;;7.30;78.24;102840.28;5092465;28;20102;-73
2022/04/29 03:41:13;;;;;;;17.50;8.98;;;;;;;7.31;78.42;102845.50;5078771;28;20021;-73
2022/04/29 03:43:38;;;;;;;18.48;9.85;;;;;;;7.36;78.36;102851.69;5091717;28;20356;-73
2022/04/29 03:46:05;;;;;;;18.85;9.57;;;;;;;7.42;78.50;102844.03;5092334;28;20024;-73
2022/04/29 03:51:15;;;;;;;18.98;9.45;;;;;;;7.33;78.28;102819.59;5090513;28;20039;-73
2022/04/29 03:53:40;;;;;;;22.80;9.68;;;;;;;7.23;78.34;102819.41;5071853;28;20400;-73
2022/04/29 03:56:06;;;;;;;15.70;9.50;;;;;;;7.24;78.66;102830.63;5085109;28;20036;-73
2022/04/29 03:58:31;;;;;;;16.38;9.82;;;;;;;7.29;78.81;102826.41;5091525;28;20055;-73
2022/04/29 04:00:56;;;;;;;17.95;9.45;;;;;;;7.20;78.31;102834.00;5092397;28;20391;-73
2022/04/29 04:03:21;;;;;;;19.23;10.10;;;;;;;7.24;79.21;102831.50;5073778;28;20097;-73
2022/04/29 04:08:31;;;;;;;17.50;10.43;;;;;;;7.21;78.57;102815.00;5072120;28;20036;-73
2022/04/29 04:10:56;;;;;;;18.40;10.30;;;;;;;7.22;79.09;102828.00;5071455;28;20024;-72
2022/04/29 04:13:21;;;;;;;18.10;9.38;;;;;;;7.19;78.99;102835.75;5088723;28;20039;-72
2022/04/29 04:15:49;;;;;;;21.08;10.13;;;;;;;7.16;79.22;102833.06;5091985;28;20028;-73
2022/04/29 04:18:14;;;;;;;21.27;9.80;;;;;;;7.11;79.50;102831.22;5091249;28;20024;-73
2022/04/29 04:20:40;;;;;;;24.25;10.85;;;;;;;7.06;79.57;102819.84;5091974;28;20445;-73
2022/04/29 04:23:05;;;;;;;21.48;11.48;;;;;;;7.08;79.54;102821.63;5089644;28;20035;-73
2022/04/29 04:25:30;;;;;;;17.85;10.23;;;;;;;7.11;80.01;102813.06;5091205;28;20027;-72
2022/04/29 04:27:56;;;;;;;23.13;10.05;;;;;;;7.09;79.78;102815.59;5092197;28;20097;-73
2022/04/29 04:30:21;;;;;;;20.60;10.73;;;;;;;7.07;80.15;102809.53;5091696;28;20051;-73
2022/04/29 04:32:46;;;;;;;20.80;10.02;;;;;;;7.01;80.36;102823.22;5079081;28;20032;-72
2022/04/29 04:35:11;;;;;;;18.70;10.45;;;;;;;7.00;79.80;102813.69;5071761;28;20411;-73
2022/04/29 04:37:37;;;;;;;22.27;10.63;;;;;;;7.02;79.73;102818.91;5082295;28;20031;-73
2022/04/29 04:40:04;;;;;;;22.13;10.52;;;;;;;6.93;80.88;102824.78;5090948;28;20129;-73
2022/04/29 04:42:29;;;;;;;22.83;11.48;;;;;;;6.89;80.73;102824.66;5082457;28;20104;-73
2022/04/29 04:44:55;;;;;;;22.63;10.57;;;;;;;6.86;80.59;102814.19;5071227;28;20131;-73
2022/04/29 04:47:21;;;;;;;20.30;10.85;;;;;;;6.82;80.79;102817.56;5071032;28;20032;-72
2022/04/29 04:49:46;;;;;;;19.63;10.90;;;;;;;6.79;81.08;102811.47;5074548;28;20025;-73
2022/04/29 04:52:11;;;;;;;18.73;11.27;;;;;;;6.86;81.09;102809.88;5075456;28;20029;-73
2022/04/29 04:54:37;;;;;;;20.10;11.00;;;;;;;6.93;80.55;102814.41;5074661;28;20119;-73
2022/04/29 04:57:04;;;;;;;25.45;11.23;;;;;;;6.99;80.31;102811.03;5075290;28;20036;-73
2022/04/29 04:59:29;;;;;;;22.58;11.48;;;;;;;7.02;81.22;102814.59;5075310;28;20017;-73
2022/04/29 05:01:54;;;;;;;20.90;10.82;;;;;;;7.07;80.90;102819.91;5076876;28;20095;-73
2022/04/29 05:04:20;;;;;;;22.30;10.73;;;;;;;7.07;80.27;102806.94;5095361;28;20020;-73
2022/04/29 05:06:46;;;;;;;21.77;10.95;;;;;;;7.12;80.13;102818.25;5095529;28;20048;-73
2022/04/29 05:09:12;;;;;;;17.90;10.55;;;;;;;7.12;79.76;102813.06;5094713;28;20064;-73
2022/04/29 05:11:37;;;;;;;24.45;11.52;;;;;;;7.14;79.74;102816.59;5092682;28;20032;-73
2022/04/29 05:14:03;;;;;;;19.35;10.60;;;;;;;7.18;79.68;102817.53;5094039;28;20082;-73
2022/04/29 05:16:28;;;;;;;21.25;11.52;;;;;;;7.10;80.37;102799.22;5095662;28;20051;-72
2022/04/29 05:18:53;;;;;;;23.73;11.88;;;;;;;7.22;80.04;102807.25;5095171;28;20388;-73
2022/04/29 05:21:19;;;;;;;20.70;11.15;;;;;;;7.20;79.87;102808.94;5081953;28;20040;-72
2022/04/29 05:23:44;;;;;;;20.30;11.43;;;;;;;7.17;79.53;102819.25;5074868;28;20378;-73
2022/04/29 05:26:10;;;;;;;26.08;11.70;;;;;;;7.19;79.51;102808.91;5074789;28;20035;-73
2022/04/29 05:28:35;;;;;;;26.98;12.52;;;;;;;7.21;79.88;102821.06;5090864;28;20094;-73
2022/04/29 05:31:01;;;;;;;28.00;12.15;;;;;;;7.23;79.05;102815.94;5085719;28;20032;-73
2022/04/29 05:33:27;;;;;;;23.10;12.23;;;;;;;7.34;79.39;102821.34;5085411;28;20472;-73
2022/04/29 05:35:53;;;;;;;24.92;11.93;;;;;;;7.38;78.78;102823.16;5073972;28;20090;-73
2022/04/29 05:38:19;;;;;;;20.52;11.73;;;;;;;7.32;78.46;102821.28;5074414;28;20032;-73
2022/04/29 05:43:28;;;;;;;20.92;11.55;;;;;;;7.31;79.31;102823.88;5080447;28;20079;-73
2022/04/29 05:45:53;;;;;;;23.10;13.35;;;;;;;7.22;79.24;102816.75;5094639;28;20060;-72
2022/04/29 05:48:19;;;;;;;25.08;12.80;;;;;;;7.26;79.26;102829.84;5083413;28;20032;-72
2022/04/29 05:50:45;;;;;;;22.45;12.27;;;;;;;7.24;79.69;102825.44;5073591;28;20060;-73
2022/04/29 05:53:10;;;;;;;21.98;12.07;;;;;;;7.27;79.63;102828.13;5077785;28;20093;-73
2022/04/29 05:55:36;;;;;;;26.75;12.23;;;;;;;7.30;79.91;102835.09;5094474;28;20024;-73
2022/04/29 05:58:01;;;;;;;22.60;12.45;;;;;;;7.36;79.02;102835.22;5093286;28;20032;-73
2022/04/29 06:00:26;;;;;;;28.38;12.02;;;;;;;7.43;78.54;102837.13;5093355;28;20051;-73
2022/04/29 06:02:52;;;;;;;25.00;12.55;;;;;;;7.53;79.23;102833.88;5093009;28;20028;-73
2022/04/29 06:05:17;;;;;;;23.70;12.27;;;;;;;7.63;78.66;102834.94;5073283;28;20021;-73
2022/04/29 06:07:44;;;;;;;23.05;12.40;;;;;;;7.76;78.08;102841.25;5073952;28;20110;-73
2022/04/29 06:10:09;;;;;;;23.77;11.25;;;;;;;7.78;77.47;102839.53;5073063;28;20083;-73
2022/04/29 06:12:41;;;;;;;22.52;12.45;;;;;;;7.84;77.30;102834.47;5073708;28;20028;-73
2022/04/29 06:15:13;;;;;;;25.83;12.35;;;;;;;7.86;77.63;102840.59;5093387;28;20043;-73
2022/04/29 06:17:38;;;;;;;22.25;12.40;;;;;;;7.89;77.09;102836.31;5093031;28;20044;-73
2022/04/29 06:20:04;;;;;;;27.35;12.85;;;;;;;8.01;76.72;102842.59;5073798;28;20463;-73
2022/04/29 06:22:29;;;;;;;25.77;12.80;;;;;;;8.09;76.79;102841.03;5073947;28;20032;-73
2022/04/29 06:24:56;;;;;;;20.90;11.88;;;;;;;8.16;75.95;102846.34;5089370;28;20111;-73
2022/04/29 06:27:21;;;;;;;25.20;12.30;;;;;;;8.18;75.21;102847.28;5094074;28;20563;-73
2022/04/29 06:29:46;;;;;;;25.67;12.25;;;;;;;8.16;74.57;102848.94;5093481;28;20074;-73
2022/04/29 06:32:11;;;;;;;22.95;12.50;;;;;;;8.16;75.39;102848.94;5089739;28;20429;-73
2022/04/29 06:34:37;;;;;;;26.30;12.73;;;;;;;8.25;75.68;102852.59;5080666;28;20035;-73
2022/04/29 06:37:03;;;;;;;27.02;12.82;;;;;;;8.34;74.69;102855.34;5093636;28;20016;-72
2022/04/29 06:39:29;;;;;;;24.02;13.13;;;;;;;8.41;75.58;102850.31;5079263;28;20043;-73
2022/04/29 06:41:54;;;;;;;22.75;13.73;;;;;;;8.55;74.79;102857.47;5074703;28;20032;-73
2022/04/29 06:44:19;;;;;;;24.85;13.95;;;;;;;8.55;73.88;102858.34;5073321;28;20025;-72
2022/04/29 06:46:45;;;;;;;20.33;12.00;;;;;;;8.51;73.88;102853.06;5072640;28;20028;-73
2022/04/29 06:49:10;;;;;;;25.52;12.60;;;;;;;8.54;74.19;102843.59;5073259;28;20016;-72
2022/04/29 06:51:35;;;;;;;25.58;12.90;;;;;;;8.63;74.78;102848.06;5081162;28;20024;-73
2022/04/29 06:54:01;;;;;;;19.48;12.35;;;;;;;8.70;74.06;102851.63;5076423;28;20044;-72
2022/04/29 06:56:26;;;;;;;24.90;13.13;;;;;;;8.74;73.82;102850.84;5075661;28;20482;-72
2022/04/29 06:58:53;;;;;;;22.05;12.90;;;;;;;8.74;73.37;102853.47;5093348;28;20365;-73
2022/04/29 07:01:18;;;;;;;30.88;12.75;;;;;;;8.71;73.67;102859.47;5091391;28;20020;-73
2022/04/29 07:03:44;;;;;;;22.13;12.02;;;;;;;8.71;73.78;102861.22;5074240;28;20027;-73
2022/04/29 07:06:09;;;;;;;22.45;12.30;;;;;;;8.72;73.92;102856.00;5073195;28;20099;-73
2022/04/29 07:08:35;;;;;;;25.95;12.60;;;;;;;8.68;74.04;102855.09;5077907;28;20518;-73
2022/04/29 07:11:00;;;;;;;24.42;12.43;;;;;;;8.72;73.80;102861.22;5093191;28;20028;-73
2022/04/29 07:13:25;;;;;;;22.02;12.13;;;;;;;8.73;73.30;102852.59;5082391;28;20383;-73
2022/04/29 07:15:51;;;;;;;24.67;13.27;;;;;;;8.85;74.13;102867.50;5090269;28;20024;-72
2022/04/29 07:18:16;;;;;;;23.60;13.52;;;;;;;8.99;73.54;102859.91;5092450;28;20119;-72
2022/04/29 07:20:42;;;;;;;25.60;12.60;;;;;;;9.19;73.62;102860.19;5092010;28;20024;-72
2022/04/29 07:23:07;;;;;;;28.67;13.30;;;;;;;9.35;71.65;102857.84;5086571;28;20020;-73
2022/04/29 07:25:33;;;;;;;27.75;13.60;;;;;;;9.57;72.70;102859.00;5077852;28;20036;-72
2022/04/29 07:27:58;;;;;;;26.27;13.27;;;;;;;9.80;71.95;102845.38;5072110;28;20029;-72
2022/04/29 07:30:24;;;;;;;24.10;13.27;;;;;;;10.03;69.75;102853.47;5090188;28;20078;-73
2022/04/29 07:32:49;;;;;;;23.83;12.95;;;;;;;10.19;69.87;102851.88;5083774;28;20448;-72
2022/04/29 07:43:26;;;;;;;24.08;13.40;;;;;;;10.64;67.94;102846.25;5089282;28;20383;-72
2022/04/29 07:45:52;;;;;;;26.25;13.77;;;;;;;10.74;67.63;102850.69;5083975;28;20020;-73
2022/04/29 07:48:18;;;;;;;23.13;13.32;;;;;;;10.92;66.76;102849.06;5080130;28;20031;-72
2022/04/29 07:50:43;;;;;;;27.55;14.32;;;;;;;11.22;67.56;102848.41;5091001;28;20031;-72
2022/04/29 07:53:09;;;;;;;23.83;13.30;;;;;;;11.35;65.85;102850.22;5092036;28;20399;-72
2022/04/29 07:55:35;;;;;;;26.88;13.07;;;;;;;11.50;65.84;102854.63;5092029;28;20038;-72
2022/04/29 07:58:03;;;;;;;22.08;13.23;;;;;;;11.55;64.35;102849.47;5080121;28;20115;-72
2022/04/29 08:00:30;;;;;;;25.13;14.10;;;;;;;11.58;64.41;102854.69;5084851;28;20024;-71
2022/04/29 08:02:55;;;;;;;22.70;13.10;;;;;;;11.44;64.02;102855.50;5087577;28;20080;-71
2022/04/29 08:05:21;;;;;;;22.25;13.00;;;;;;;11.40;64.79;102855.47;5071776;28;20557;-71
2022/04/29 08:07:47;;;;;;;22.63;13.68;;;;;;;11.48;65.04;102856.41;5071851;28;20029;-71
2022/04/29 08:10:12;;;;;;;28.20;13.15;;;;;;;11.46;64.69;102856.38;5083184;28;20053;-71
2022/04/29 08:12:38;;;;;;;27.80;13.95;;;;;;;11.50;64.36;102857.25;5090230;28;20095;-71
2022/04/29 08:15:04;;;;;;;22.75;14.50;;;;;;;11.63;63.77;102855.56;5079367;28;20029;-72
2022/04/29 08:17:29;;;;;;;33.63;14.98;;;;;;;11.72;64.20;102859.09;5082718;28;20465;-72
2022/04/29 08:19:54;;;;;;;22.50;13.43;;;;;;;11.87;63.82;102847.88;5088004;28;20098;-71
2022/04/29 08:22:20;;;;;;;26.98;13.55;;;;;;;12.01;64.21;102852.25;5074581;28;20495;-71
2022/04/29 08:24:46;;;;;;;26.85;13.45;;;;;;;12.19;62.61;102861.00;5081687;28;20067;-71
2022/04/29 08:27:12;;;;;;;24.48;13.75;;;;;;;12.18;63.32;102861.00;5072284;28;20040;-72
2022/04/29 08:29:37;;;;;;;24.98;13.90;;;;;;;12.22;62.74;102859.28;5081342;28;20032;-71
2022/04/29 08:32:04;;;;;;;27.08;14.40;;;;;;;12.20;61.53;102861.91;5088992;28;20056;-71
2022/04/29 08:34:29;;;;;;;33.70;13.85;;;;;;;12.18;62.62;102868.84;5082880;28;20037;-72
2022/04/29 08:36:54;;;;;;;24.33;13.00;;;;;;;12.18;62.69;102864.50;5071693;28;20078;-72
2022/04/29 08:39:20;;;;;;;25.52;13.98;;;;;;;12.28;63.07;102868.00;5089507;28;20020;-71
2022/04/29 08:41:45;;;;;;;25.45;13.25;;;;;;;12.27;62.94;102868.00;5091655;28;20441;-72
2022/04/29 08:44:11;;;;;;;26.48;13.75;;;;;;;12.37;63.06;102854.94;5091306;28;20032;-71
2022/04/29 08:46:40;;;;;;;25.95;13.52;;;;;;;12.44;62.11;102860.19;5070561;28;20041;-72
2022/04/29 08:49:07;;;;;;;25.00;14.75;;;;;;;12.49;62.63;102861.03;5075067;28;20086;-71
2022/04/29 08:51:35;;;;;;;28.45;13.85;;;;;;;12.59;62.51;102860.19;5071789;28;20411;-72
2022/04/29 08:54:02;;;;;;;27.27;14.00;;;;;;;12.59;61.82;102849.75;5082251;28;20040;-71
2022/04/29 08:59:12;;;;;;;23.35;13.45;;;;;;;12.71;61.09;102844.47;5090835;28;20051;-71
2022/04/29 09:01:40;;;;;;;24.58;13.60;;;;;;;12.72;60.79;102835.78;5091657;28;20020;-71
2022/04/29 09:04:06;;;;;;;22.73;13.68;;;;;;;12.84;60.85;102827.03;5089279;28;20028;-72
2022/04/29 09:06:32;;;;;;;26.67;14.57;;;;;;;12.92;61.18;102829.66;5082273;28;20031;-72
2022/04/29 09:09:08;;;;;;;25.35;14.30;;;;;;;12.96;61.96;102845.34;5091940;28;20028;-72
2022/04/29 09:11:33;;;;;;;25.23;14.65;;;;;;;13.01;59.31;102850.56;5078811;28;20047;-72
2022/04/29 09:14:18;;;;;;;26.15;13.15;;;;;;;13.15;61.25;102859.28;5070822;28;20052;-72
2022/04/29 09:16:44;;;;;;;24.65;13.30;;;;;;;13.32;60.89;102860.13;5071401;28;20063;-72
2022/04/29 09:19:10;;;;;;;24.85;13.27;;;;;;;13.53;59.96;102853.94;5073034;28;20066;-71
2022/04/29 09:21:35;;;;;;;26.00;13.55;;;;;;;13.66;58.47;102856.50;5070637;28;20036;-72
2022/04/29 09:24:06;;;;;;;25.92;13.55;;;;;;;13.72;58.46;102849.50;5070788;28;20020;-71
2022/04/29 09:26:36;;;;;;;24.45;13.57;;;;;;;13.72;57.87;102854.75;5080543;28;20043;-71
2022/04/29 09:29:18;;;;;;;23.10;14.05;;;;;;;13.81;58.49;102859.94;5090478;28;20048;-71
2022/04/29 09:31:53;;;;;;;28.08;13.10;;;;;;;13.89;58.59;102859.91;5091300;28;20066;-71
2022/04/29 09:34:18;;;;;;;19.08;12.45;;;;;;;13.92;57.26;102854.63;5090740;28;20035;-71
2022/04/29 09:36:43;;;;;;;27.90;13.50;;;;;;;13.88;57.71;102859.91;5085499;28;20454;-71
2022/04/29 09:39:26;;;;;;;25.13;14.38;;;;;;;13.77;57.39;102863.47;5074587;28;20031;-71
2022/04/29 09:41:57;;;;;;;27.67;13.30;;;;;;;13.67;58.81;102866.09;5086430;28;20379;-70
2022/04/29 09:44:30;;;;;;;22.65;13.90;;;;;;;13.68;58.77;102873.97;5092730;28;20033;-70
2022/04/29 09:46:57;;;;;;;22.88;13.18;;;;;;;13.74;58.72;102860.84;5082739;28;20024;-70
2022/04/29 09:49:27;;;;;;;31.92;13.05;;;;;;;13.60;59.66;102860.03;5073495;28;20028;-70
2022/04/29 09:51:53;;;;;;;23.77;13.30;;;;;;;13.48;59.45;102855.72;5076121;28;20498;-70
2022/04/29 09:54:18;;;;;;;23.63;13.70;;;;;;;13.42;59.88;102853.13;5073563;28;20044;-70
2022/04/29 09:56:45;;;;;;;23.95;14.10;;;;;;;13.26;59.10;102854.91;5075959;28;20056;-71
2022/04/29 09:59:11;;;;;;;25.10;13.85;;;;;;;13.06;60.26;102846.19;5074040;28;20028;-70
2022/04/29 10:01:36;;;;;;;27.63;13.60;;;;;;;12.93;61.77;102847.09;5076579;28;20050;-70
2022/04/29 10:04:02;;;;;;;24.45;13.10;;;;;;;12.85;61.42;102842.75;5093679;28;20122;-75
2022/04/29 10:06:29;;;;;;;27.40;14.05;;;;;;;12.87;62.75;102861.03;5094595;28;20068;-71
2022/04/29 10:08:58;;;;;;;23.48;12.93;;;;;;;12.86;61.90;102854.94;5080503;28;20024;-70
2022/04/29 10:11:26;;;;;;;23.67;13.18;;;;;;;12.78;61.17;102846.22;5077211;28;20384;-70
2022/04/29 10:13:52;;;;;;;25.20;13.65;;;;;;;12.80;62.84;102847.09;5073466;28;20024;-70
2022/04/29 10:16:18;;;;;;;25.88;13.90;;;;;;;12.84;62.50;102842.72;5073210;28;20085;-70
2022/04/29 10:21:48;;;;;;;24.83;13.88;;;;;;;12.74;62.43;102839.25;5074079;28;20068;-70
2022/04/29 10:24:14;;;;;;;23.83;13.65;;;;;;;12.82;62.37;102832.28;5072922;28;20020;-70
2022/04/29 10:26:39;;;;;;;25.13;14.20;;;;;;;12.84;62.12;102822.66;5075886;28;20078;-70
2022/04/29 10:29:06;;;;;;;24.05;13.98;;;;;;;12.91;61.70;102840.97;5092150;28;20028;-71
2022/04/29 10:31:32;;;;;;;27.20;14.05;;;;;;;12.96;60.74;102828.75;5093178;28;20032;-70
2022/04/29 10:34:25;;;;;;;24.48;14.25;;;;;;;13.06;61.29;102830.47;5083351;28;20020;-70
2022/04/29 10:36:50;;;;;;;20.73;12.63;;;;;;;13.12;61.02;102831.34;5085395;28;20032;-70
2022/04/29 10:39:21;;;;;;;23.75;12.88;;;;;;;13.24;60.48;102826.94;5072520;28;20040;-70
2022/04/29 10:42:02;;;;;;;26.38;13.90;;;;;;;13.25;59.94;102829.59;5073061;28;20028;-70
2022/04/29 10:44:28;;;;;;;26.15;13.05;;;;;;;13.16;61.10;102837.44;5076923;28;20077;-70
2022/04/29 10:46:54;;;;;;;23.50;13.60;;;;;;;13.23;61.17;102839.16;5084117;28;20428;-70
2022/04/29 10:49:30;;;;;;;25.15;12.90;;;;;;;13.35;61.68;102838.28;5074136;28;20024;-70
2022/04/29 10:51:59;;;;;;;24.70;13.73;;;;;;;13.33;60.67;102830.44;5072783;28;20039;-70
2022/04/29 10:54:33;;;;;;;23.85;13.55;;;;;;;13.29;60.73;102828.69;5076459;28;20036;-70
2022/04/29 10:57:01;;;;;;;27.33;13.85;;;;;;;13.25;60.72;102826.09;5075620;28;20383;-71
2022/04/29 10:59:47;;;;;;;21.77;12.32;;;;;;;13.28;61.56;102821.72;5072245;28;20404;-70
2022/04/29 11:02:26;;;;;;;23.10;12.18;;;;;;;13.27;60.84;102809.50;5072919;28;20098;-70
2022/04/29 11:04:52;;;;;;;23.27;12.10;;;;;;;13.32;61.23;102817.34;5072861;28;20016;-70
2022/04/29 11:07:38;;;;;;;26.00;13.23;;;;;;;13.40;59.93;102810.31;5073692;28;20463;-70
2022/04/29 11:10:05;;;;;;;23.38;12.55;;;;;;;13.31;60.46;102806.00;5073872;28;20046;-71
2022/04/29 11:12:39;;;;;;;25.60;12.48;;;;;;;13.28;60.76;102816.50;5072466;28;20029;-70
2022/04/29 11:15:38;;;;;;;22.45;12.13;;;;;;;13.55;60.73;102806.78;5073087;28;20450;-70
2022/04/29 11:18:23;;;;;;;20.65;11.90;;;;;;;13.70;60.12;102814.56;5080810;28;20122;-70
2022/04/29 11:20:55;;;;;;;23.10;12.82;;;;;;;13.76;60.80;102803.16;5077284;28;20056;-70
2022/04/29 11:26:18;;;;;;;21.55;12.48;;;;;;;14.14;57.99;102808.19;5083533;28;20097;-70
2022/04/29 11:28:44;;;;;;;24.95;11.70;;;;;;;14.31;57.72;102807.19;5073251;28;20376;-70
2022/04/29 11:31:10;;;;;;;24.02;12.60;;;;;;;14.55;57.17;102796.53;5087228;28;20021;-70
2022/04/29 11:33:37;;;;;;;19.80;11.40;;;;;;;14.81;55.86;102798.00;5092315;28;20032;-70
2022/04/29 11:36:08;;;;;;;21.52;11.27;;;;;;;15.11;55.58;102796.84;5074407;28;20064;-71
2022/04/29 11:38:44;;;;;;;23.00;10.95;;;;;;;15.26;55.33;102791.38;5072256;28;20028;-70
2022/04/29 11:41:17;;;;;;;21.15;10.75;;;;;;;15.59;54.95;102797.97;5078150;28;20073;-71